sensor_id;sensor_type;location;lat;lon;timestamp;pressure;altitude;pressure_sealevel;temperature;humidity
11525;BME280;5819;49.648;8.330;2023-03-26T00:01:27;99896.78;;;8.53;100.00
11525;BME280;5819;49.648;8.330;2023-03-26T00:03:55;99901.88;;;8.55;100.00
11525;BME280;5819;49.648;8.330;2023-03-26T00:06:27;99894.38;;;8.49;100.00
11525;BME280;5819;49.648;8.330;2023-03-26T00:08:56;99882.69;;;8.59;100.00
11525;BME280;5819;49.648;8.330;2023-03-26T00:11:26;99880.19;;;8.57;100.00
11525;BME280;5819;49.648;8.330;2023-03-26T00:13:55;99880.56;;;8.48;100.00
11525;BME280;5819;49.648;8.330;2023-03-26T00:16:25;99885.94;;;8.43;100.00
11525;BME280;5819;49.648;8.330;2023-03-26T00:18:54;99869.22;;;8.51;100.00
11525;BME280;5819;49.648;8.330;2023-03-26T00:21:25;99876.53;;;8.41;100.00
11525;BME280;5819;49.648;8.330;2023-03-26T00:23:56;99862.47;;;8.46;100.00
11525;BME280;5819;49.648;8.330;2023-03-26T00:26:26;99875.00;;;8.57;100.00
11525;BME280;5819;49.648;8.330;2023-03-26T00:28:56;99872.31;;;8.59;100.00
11525;BME280;5819;49.648;8.330;2023-03-26T00:31:26;99874.22;;;8.55;100.00
11525;BME280;5819;49.648;8.330;2023-03-26T00:33:55;99870.53;;;8.61;100.00
11525;BME280;5819;49.648;8.330;2023-03-26T00:36:24;99877.13;;;8.68;100.00
11525;BME280;5819;49.648;8.330;2023-03-26T00:38:53;99875.53;;;8.65;100.00
11525;BME280;5819;49.648;8.330;2023-03-26T00:41:24;99873.59;;;8.50;100.00
11525;BME280;5819;49.648;8.330;2023-03-26T00:43:58;99866.75;;;8.48;100.00
11525;BME280;5819;49.648;8.330;2023-03-26T00:46:27;99877.53;;;8.38;100.00
11525;BME280;5819;49.648;8.330;2023-03-26T00:48:56;99873.38;;;8.34;100.00
11525;BME280;5819;49.648;8.330;2023-03-26T00:51:27;99872.41;;;8.37;100.00
11525;BME280;5819;49.648;8.330;2023-03-26T00:53:56;99863.44;;;8.44;100.00
11525;BME280;5819;49.648;8.330;2023-03-26T00:56:24;99868.59;;;8.45;100.00
11525;BME280;5819;49.648;8.330;2023-03-26T00:58:52;99857.88;;;8.33;100.00
11525;BME280;5819;49.648;8.330;2023-03-26T01:01:22;99851.25;;;8.26;100.00
11525;BME280;5819;49.648;8.330;2023-03-26T01:03:54;99848.88;;;8.20;100.00
11525;BME280;5819;49.648;8.330;2023-03-26T01:06:38;99844.31;;;8.26;100.00
11525;BME280;5819;49.648;8.330;2023-03-26T01:09:13;99834.75;;;8.27;100.00
11525;BME280;5819;49.648;8.330;2023-03-26T01:11:42;99835.69;;;8.26;100.00
11525;BME280;5819;49.648;8.330;2023-03-26T01:14:13;99826.00;;;8.31;100.00
11525;BME280;5819;49.648;8.330;2023-03-26T01:16:45;99825.31;;;8.26;100.00
11525;BME280;5819;49.648;8.330;2023-03-26T01:19:21;99828.34;;;8.37;100.00
11525;BME280;5819;49.648;8.330;2023-03-26T01:21:53;99822.25;;;8.38;100.00
11525;BME280;5819;49.648;8.330;2023-03-26T01:24:23;99821.97;;;8.44;100.00
11525;BME280;5819;49.648;8.330;2023-03-26T01:27:06;99820.38;;;8.41;100.00
11525;BME280;5819;49.648;8.330;2023-03-26T01:29:42;99829.06;;;8.40;100.00
11525;BME280;5819;49.648;8.330;2023-03-26T01:32:35;99824.00;;;8.37;100.00
11525;BME280;5819;49.648;8.330;2023-03-26T01:35:14;99815.91;;;8.45;100.00
11525;BME280;5819;49.648;8.330;2023-03-26T01:37:57;99810.25;;;8.35;100.00
11525;BME280;5819;49.648;8.330;2023-03-26T01:40:41;99802.38;;;8.38;100.00
11525;BME280;5819;49.648;8.330;2023-03-26T01:43:22;99787.78;;;8.36;100.00
11525;BME280;5819;49.648;8.330;2023-03-26T01:45:52;99787.97;;;8.31;100.00
11525;BME280;5819;49.648;8.330;2023-03-26T01:48:28;99784.09;;;8.41;100.00
11525;BME280;5819;49.648;8.330;2023-03-26T01:50:57;99780.56;;;8.42;100.00
11525;BME280;5819;49.648;8.330;2023-03-26T01:53:26;99778.25;;;8.36;100.00
11525;BME280;5819;49.648;8.330;2023-03-26T01:56:03;99782.13;;;8.26;100.00
11525;BME280;5819;49.648;8.330;2023-03-26T01:58:37;99783.16;;;8.22;100.00
11525;BME280;5819;49.648;8.330;2023-03-26T02:01:16;99771.06;;;8.43;100.00
11525;BME280;5819;49.648;8.330;2023-03-26T02:03:55;99771.53;;;8.32;100.00
11525;BME280;5819;49.648;8.330;2023-03-26T02:06:30;99770.34;;;8.39;100.00
11525;BME280;5819;49.648;8.330;2023-03-26T02:09:06;99764.00;;;8.26;100.00
11525;BME280;5819;49.648;8.330;2023-03-26T02:11:39;99765.28;;;8.16;100.00
11525;BME280;5819;49.648;8.330;2023-03-26T02:14:08;99750.91;;;8.09;100.00
11525;BME280;5819;49.648;8.330;2023-03-26T02:16:38;99749.34;;;8.05;100.00
11525;BME280;5819;49.648;8.330;2023-03-26T02:19:06;99743.38;;;8.03;100.00
11525;BME280;5819;49.648;8.330;2023-03-26T02:21:41;99734.50;;;8.09;100.00
11525;BME280;5819;49.648;8.330;2023-03-26T02:24:10;99732.78;;;8.09;100.00
11525;BME280;5819;49.648;8.330;2023-03-26T02:26:39;99731.88;;;8.10;100.00
11525;BME280;5819;49.648;8.330;2023-03-26T02:29:10;99728.47;;;8.08;100.00
11525;BME280;5819;49.648;8.330;2023-03-26T02:31:41;99727.50;;;8.11;100.00
11525;BME280;5819;49.648;8.330;2023-03-26T02:34:09;99715.53;;;8.08;100.00
11525;BME280;5819;49.648;8.330;2023-03-26T02:36:45;99717.94;;;8.13;100.00
11525;BME280;5819;49.648;8.330;2023-03-26T02:39:13;99709.78;;;8.22;100.00
11525;BME280;5819;49.648;8.330;2023-03-26T02:41:50;99708.97;;;8.20;100.00
11525;BME280;5819;49.648;8.330;2023-03-26T02:44:19;99701.91;;;8.23;100.00
11525;BME280;5819;49.648;8.330;2023-03-26T02:46:56;99701.31;;;8.18;100.00
11525;BME280;5819;49.648;8.330;2023-03-26T02:49:47;99696.16;;;8.17;100.00
11525;BME280;5819;49.648;8.330;2023-03-26T02:52:39;99686.78;;;8.14;100.00
11525;BME280;5819;49.648;8.330;2023-03-26T02:55:08;99681.22;;;8.03;100.00
11525;BME280;5819;49.648;8.330;2023-03-26T02:57:40;99686.06;;;8.11;100.00
11525;BME280;5819;49.648;8.330;2023-03-26T03:00:19;99678.94;;;8.16;100.00
11525;BME280;5819;49.648;8.330;2023-03-26T03:02:48;99668.72;;;8.13;100.00
11525;BME280;5819;49.648;8.330;2023-03-26T03:05:18;99662.75;;;8.11;100.00
11525;BME280;5819;49.648;8.330;2023-03-26T03:07:53;99665.28;;;8.12;100.00
11525;BME280;5819;49.648;8.330;2023-03-26T03:10:25;99665.78;;;8.20;100.00
11525;BME280;5819;49.648;8.330;2023-03-26T03:13:18;99660.47;;;8.23;100.00
11525;BME280;5819;49.648;8.330;2023-03-26T03:15:47;99648.31;;;8.25;100.00
11525;BME280;5819;49.648;8.330;2023-03-26T03:18:15;99643.84;;;8.29;100.00
11525;BME280;5819;49.648;8.330;2023-03-26T03:20:43;99633.50;;;8.27;100.00
11525;BME280;5819;49.648;8.330;2023-03-26T03:23:11;99636.09;;;8.27;100.00
11525;BME280;5819;49.648;8.330;2023-03-26T03:25:40;99629.19;;;8.28;100.00
11525;BME280;5819;49.648;8.330;2023-03-26T03:28:08;99623.16;;;8.27;100.00
11525;BME280;5819;49.648;8.330;2023-03-26T03:30:38;99626.59;;;8.28;100.00
11525;BME280;5819;49.648;8.330;2023-03-26T03:33:16;99622.22;;;8.30;100.00
11525;BME280;5819;49.648;8.330;2023-03-26T03:35:46;99623.13;;;8.29;100.00
11525;BME280;5819;49.648;8.330;2023-03-26T03:38:15;99624.81;;;8.30;100.00
11525;BME280;5819;49.648;8.330;2023-03-26T03:40:48;99613.63;;;8.28;100.00
11525;BME280;5819;49.648;8.330;2023-03-26T03:43:17;99612.03;;;8.25;100.00
11525;BME280;5819;49.648;8.330;2023-03-26T03:46:04;99605.00;;;8.27;100.00
11525;BME280;5819;49.648;8.330;2023-03-26T03:48:36;99597.38;;;8.24;100.00
11525;BME280;5819;49.648;8.330;2023-03-26T03:51:06;99594.03;;;8.22;100.00
11525;BME280;5819;49.648;8.330;2023-03-26T03:54:09;99586.47;;;8.18;100.00
11525;BME280;5819;49.648;8.330;2023-03-26T03:56:44;99581.91;;;8.04;100.00
11525;BME280;5819;49.648;8.330;2023-03-26T03:59:15;99576.34;;;7.93;100.00
11525;BME280;5819;49.648;8.330;2023-03-26T04:01:46;99577.41;;;7.89;100.00
11525;BME280;5819;49.648;8.330;2023-03-26T04:04:30;99571.72;;;7.81;100.00
11525;BME280;5819;49.648;8.330;2023-03-26T04:07:02;99567.44;;;7.80;100.00
11525;BME280;5819;49.648;8.330;2023-03-26T04:09:46;99565.88;;;7.76;100.00
11525;BME280;5819;49.648;8.330;2023-03-26T04:12:16;99563.44;;;7.73;100.00
11525;BME280;5819;49.648;8.330;2023-03-26T04:14:58;99556.53;;;7.73;100.00
11525;BME280;5819;49.648;8.330;2023-03-26T04:17:27;99539.75;;;7.82;100.00
11525;BME280;5819;49.648;8.330;2023-03-26T04:19:56;99543.75;;;7.89;100.00
11525;BME280;5819;49.648;8.330;2023-03-26T04:22:31;99533.38;;;7.89;100.00
11525;BME280;5819;49.648;8.330;2023-03-26T04:25:04;99529.06;;;7.89;100.00
11525;BME280;5819;49.648;8.330;2023-03-26T04:27:55;99502.66;;;7.81;100.00
11525;BME280;5819;49.648;8.330;2023-03-26T04:30:46;99498.31;;;7.82;100.00
11525;BME280;5819;49.648;8.330;2023-03-26T04:33:32;99517.50;;;7.78;100.00
11525;BME280;5819;49.648;8.330;2023-03-26T04:36:01;99515.31;;;7.87;100.00
11525;BME280;5819;49.648;8.330;2023-03-26T04:38:38;99509.94;;;7.92;100.00
11525;BME280;5819;49.648;8.330;2023-03-26T04:41:09;99508.84;;;7.97;100.00
11525;BME280;5819;49.648;8.330;2023-03-26T04:43:45;99501.66;;;8.02;100.00
11525;BME280;5819;49.648;8.330;2023-03-26T04:46:35;99489.31;;;8.09;100.00
11525;BME280;5819;49.648;8.330;2023-03-26T04:49:12;99481.75;;;8.05;100.00
11525;BME280;5819;49.648;8.330;2023-03-26T04:51:40;99481.75;;;8.05;100.00
11525;BME280;5819;49.648;8.330;2023-03-26T04:54:30;99478.44;;;8.01;100.00
11525;BME280;5819;49.648;8.330;2023-03-26T04:57:06;99477.31;;;7.88;100.00
11525;BME280;5819;49.648;8.330;2023-03-26T04:59:42;99459.91;;;7.91;100.00
11525;BME280;5819;49.648;8.330;2023-03-26T05:02:12;99465.88;;;7.93;100.00
11525;BME280;5819;49.648;8.330;2023-03-26T05:04:49;99458.63;;;8.00;100.00
11525;BME280;5819;49.648;8.330;2023-03-26T05:07:19;99455.91;;;8.03;100.00
11525;BME280;5819;49.648;8.330;2023-03-26T05:09:51;99447.91;;;8.08;100.00
11525;BME280;5819;49.648;8.330;2023-03-26T05:12:29;99441.84;;;8.09;100.00
11525;BME280;5819;49.648;8.330;2023-03-26T05:15:35;99439.88;;;8.14;100.00
11525;BME280;5819;49.648;8.330;2023-03-26T05:18:07;99434.41;;;8.20;100.00
11525;BME280;5819;49.648;8.330;2023-03-26T05:20:47;99429.06;;;8.23;100.00
11525;BME280;5819;49.648;8.330;2023-03-26T05:23:16;99418.56;;;8.26;100.00
11525;BME280;5819;49.648;8.330;2023-03-26T05:25:51;99419.19;;;8.31;100.00
11525;BME280;5819;49.648;8.330;2023-03-26T05:28:22;99416.34;;;8.37;100.00
11525;BME280;5819;49.648;8.330;2023-03-26T05:30:59;99415.44;;;8.38;100.00
11525;BME280;5819;49.648;8.330;2023-03-26T05:33:32;99404.00;;;8.42;100.00
11525;BME280;5819;49.648;8.330;2023-03-26T05:36:08;99406.50;;;8.43;100.00
11525;BME280;5819;49.648;8.330;2023-03-26T05:38:41;99402.84;;;8.48;100.00
11525;BME280;5819;49.648;8.330;2023-03-26T05:41:17;99395.75;;;8.51;100.00
11525;BME280;5819;49.648;8.330;2023-03-26T05:43:48;99388.91;;;8.50;100.00
11525;BME280;5819;49.648;8.330;2023-03-26T05:46:21;99391.63;;;8.47;100.00
11525;BME280;5819;49.648;8.330;2023-03-26T05:48:49;99385.84;;;8.42;100.00
11525;BME280;5819;49.648;8.330;2023-03-26T05:51:21;99386.16;;;8.36;100.00
11525;BME280;5819;49.648;8.330;2023-03-26T05:54:09;99379.53;;;8.30;100.00
11525;BME280;5819;49.648;8.330;2023-03-26T05:57:01;99376.19;;;8.27;100.00
11525;BME280;5819;49.648;8.330;2023-03-26T05:59:47;99368.72;;;8.21;100.00
11525;BME280;5819;49.648;8.330;2023-03-26T06:02:38;99365.50;;;8.16;100.00
11525;BME280;5819;49.648;8.330;2023-03-26T06:05:24;99363.34;;;8.07;100.00
11525;BME280;5819;49.648;8.330;2023-03-26T06:08:14;99361.81;;;8.02;100.00
11525;BME280;5819;49.648;8.330;2023-03-26T06:10:48;99357.81;;;7.97;100.00
11525;BME280;5819;49.648;8.330;2023-03-26T06:13:16;99349.34;;;7.93;100.00
11525;BME280;5819;49.648;8.330;2023-03-26T06:15:47;99342.94;;;8.00;100.00
11525;BME280;5819;49.648;8.330;2023-03-26T06:18:31;99337.72;;;8.02;100.00
11525;BME280;5819;49.648;8.330;2023-03-26T06:21:14;99326.03;;;7.93;100.00
11525;BME280;5819;49.648;8.330;2023-03-26T06:23:51;99316.34;;;7.80;100.00
11525;BME280;5819;49.648;8.330;2023-03-26T06:26:42;99310.31;;;7.79;100.00
11525;BME280;5819;49.648;8.330;2023-03-26T06:29:29;99307.94;;;7.75;100.00
11525;BME280;5819;49.648;8.330;2023-03-26T06:32:18;99308.09;;;7.72;100.00
11525;BME280;5819;49.648;8.330;2023-03-26T06:35:12;99302.22;;;7.68;100.00
11525;BME280;5819;49.648;8.330;2023-03-26T06:37:40;99286.53;;;7.71;100.00
11525;BME280;5819;49.648;8.330;2023-03-26T06:40:11;99284.78;;;7.72;100.00
11525;BME280;5819;49.648;8.330;2023-03-26T06:42:55;99278.03;;;7.69;100.00
11525;BME280;5819;49.648;8.330;2023-03-26T06:45:49;99278.88;;;7.70;100.00
11525;BME280;5819;49.648;8.330;2023-03-26T06:48:36;99284.78;;;7.72;100.00
11525;BME280;5819;49.648;8.330;2023-03-26T06:51:19;99276.34;;;7.68;100.00
11525;BME280;5819;49.648;8.330;2023-03-26T06:54:06;99274.66;;;7.67;100.00
11525;BME280;5819;49.648;8.330;2023-03-26T06:56:53;99278.41;;;7.62;100.00
11525;BME280;5819;49.648;8.330;2023-03-26T07:00:00;99273.97;;;7.64;100.00
11525;BME280;5819;49.648;8.330;2023-03-26T07:02:47;99266.84;;;7.69;100.00
11525;BME280;5819;49.648;8.330;2023-03-26T07:05:34;99267.88;;;7.65;100.00
11525;BME280;5819;49.648;8.330;2023-03-26T07:08:21;99249.72;;;7.66;100.00
11525;BME280;5819;49.648;8.330;2023-03-26T07:11:10;99245.28;;;7.68;100.00
11525;BME280;5819;49.648;8.330;2023-03-26T07:13:56;99242.00;;;7.65;100.00
11525;BME280;5819;49.648;8.330;2023-03-26T07:16:46;99246.34;;;7.64;100.00
11525;BME280;5819;49.648;8.330;2023-03-26T07:19:29;99227.16;;;7.68;100.00
11525;BME280;5819;49.648;8.330;2023-03-26T07:21:58;99230.22;;;7.76;100.00
11525;BME280;5819;49.648;8.330;2023-03-26T07:24:47;99219.81;;;7.78;100.00
11525;BME280;5819;49.648;8.330;2023-03-26T07:27:45;99224.06;;;7.62;100.00
11525;BME280;5819;49.648;8.330;2023-03-26T07:30:27;99218.13;;;7.77;100.00
11525;BME280;5819;49.648;8.330;2023-03-26T07:33:24;99217.13;;;7.79;100.00
11525;BME280;5819;49.648;8.330;2023-03-26T07:36:19;99209.75;;;7.89;100.00
11525;BME280;5819;49.648;8.330;2023-03-26T07:39:18;99212.50;;;7.86;100.00
11525;BME280;5819;49.648;8.330;2023-03-26T07:42:40;99201.38;;;8.01;100.00
11525;BME280;5819;49.648;8.330;2023-03-26T07:45:36;99199.63;;;8.02;100.00
11525;BME280;5819;49.648;8.330;2023-03-26T07:48:24;99187.19;;;8.08;100.00
11525;BME280;5819;49.648;8.330;2023-03-26T07:50:59;99187.47;;;8.19;100.00
11525;BME280;5819;49.648;8.330;2023-03-26T07:53:58;99194.72;;;8.13;100.00
11525;BME280;5819;49.648;8.330;2023-03-26T07:56:41;99191.91;;;8.17;100.00
11525;BME280;5819;49.648;8.330;2023-03-26T07:59:30;99189.75;;;8.25;100.00
11525;BME280;5819;49.648;8.330;2023-03-26T08:02:36;99192.19;;;8.28;100.00
11525;BME280;5819;49.648;8.330;2023-03-26T08:05:27;99195.00;;;8.24;100.00
11525;BME280;5819;49.648;8.330;2023-03-26T08:08:18;99190.38;;;8.13;100.00
11525;BME280;5819;49.648;8.330;2023-03-26T08:11:23;99202.13;;;8.37;100.00
11525;BME280;5819;49.648;8.330;2023-03-26T08:14:03;99199.44;;;8.22;100.00
11525;BME280;5819;49.648;8.330;2023-03-26T08:16:41;99201.94;;;8.23;100.00
11525;BME280;5819;49.648;8.330;2023-03-26T08:19:31;99192.66;;;8.19;100.00
11525;BME280;5819;49.648;8.330;2023-03-26T08:22:10;99186.50;;;8.22;100.00
11525;BME280;5819;49.648;8.330;2023-03-26T08:24:44;99180.19;;;8.10;100.00
11525;BME280;5819;49.648;8.330;2023-03-26T08:27:21;99177.84;;;8.06;100.00
11525;BME280;5819;49.648;8.330;2023-03-26T08:29:56;99169.47;;;8.00;100.00
11525;BME280;5819;49.648;8.330;2023-03-26T08:32:28;99166.25;;;8.13;100.00
11525;BME280;5819;49.648;8.330;2023-03-26T08:34:58;99163.44;;;8.00;100.00
11525;BME280;5819;49.648;8.330;2023-03-26T08:37:30;99156.03;;;8.10;100.00
11525;BME280;5819;49.648;8.330;2023-03-26T08:39:58;99136.19;;;8.26;100.00
11525;BME280;5819;49.648;8.330;2023-03-26T08:45:34;99129.81;;;8.49;100.00
11525;BME280;5819;49.648;8.330;2023-03-26T08:48:58;99144.94;;;8.40;100.00
11525;BME280;5819;49.648;8.330;2023-03-26T08:55:01;99123.16;;;8.76;100.00
11525;BME280;5819;49.648;8.330;2023-03-26T09:04:32;99123.16;;;8.60;100.00
11525;BME280;5819;49.648;8.330;2023-03-26T09:07:27;99127.84;;;8.54;100.00
11525;BME280;5819;49.648;8.330;2023-03-26T09:10:46;99130.75;;;8.63;100.00
11525;BME280;5819;49.648;8.330;2023-03-26T09:13:40;99127.41;;;8.61;100.00
11525;BME280;5819;49.648;8.330;2023-03-26T09:19:53;99113.28;;;8.82;100.00
11525;BME280;5819;49.648;8.330;2023-03-26T09:23:05;99119.03;;;8.87;100.00
11525;BME280;5819;49.648;8.330;2023-03-26T09:26:02;99118.56;;;8.81;100.00
11525;BME280;5819;49.648;8.330;2023-03-26T09:29:06;99125.97;;;8.71;100.00
11525;BME280;5819;49.648;8.330;2023-03-26T09:31:46;99121.03;;;8.67;100.00
11525;BME280;5819;49.648;8.330;2023-03-26T09:34:30;99122.16;;;8.78;100.00
11525;BME280;5819;49.648;8.330;2023-03-26T09:37:17;99122.81;;;8.66;100.00
11525;BME280;5819;49.648;8.330;2023-03-26T09:39:59;99134.09;;;8.50;100.00
11525;BME280;5819;49.648;8.330;2023-03-26T09:42:36;99145.78;;;8.41;100.00
11525;BME280;5819;49.648;8.330;2023-03-26T09:45:34;99161.81;;;8.32;100.00
11525;BME280;5819;49.648;8.330;2023-03-26T09:48:34;99149.22;;;8.24;100.00
11525;BME280;5819;49.648;8.330;2023-03-26T09:51:31;99137.59;;;8.49;100.00
11525;BME280;5819;49.648;8.330;2023-03-26T09:57:23;99088.84;;;9.02;100.00
11525;BME280;5819;49.648;8.330;2023-03-26T10:00:05;99085.97;;;9.66;100.00
11525;BME280;5819;49.648;8.330;2023-03-26T10:03:02;99088.69;;;9.93;100.00
11525;BME280;5819;49.648;8.330;2023-03-26T10:05:43;99070.13;;;10.27;100.00
11525;BME280;5819;49.648;8.330;2023-03-26T10:08:37;99070.22;;;10.40;100.00
11525;BME280;5819;49.648;8.330;2023-03-26T10:11:17;99077.91;;;10.42;100.00
11525;BME280;5819;49.648;8.330;2023-03-26T10:13:57;99073.25;;;10.88;100.00
11525;BME280;5819;49.648;8.330;2023-03-26T10:16:33;99068.75;;;11.16;100.00
11525;BME280;5819;49.648;8.330;2023-03-26T10:19:19;99067.97;;;11.41;100.00
11525;BME280;5819;49.648;8.330;2023-03-26T10:21:55;99069.88;;;11.64;100.00
11525;BME280;5819;49.648;8.330;2023-03-26T10:24:37;99072.00;;;11.20;100.00
11525;BME280;5819;49.648;8.330;2023-03-26T10:27:33;99055.69;;;11.31;100.00
11525;BME280;5819;49.648;8.330;2023-03-26T10:30:27;99040.44;;;11.12;100.00
11525;BME280;5819;49.648;8.330;2023-03-26T10:33:11;99047.22;;;10.61;100.00
11525;BME280;5819;49.648;8.330;2023-03-26T10:35:55;99059.38;;;10.19;100.00
11525;BME280;5819;49.648;8.330;2023-03-26T10:38:34;99039.84;;;10.41;100.00
11525;BME280;5819;49.648;8.330;2023-03-26T10:41:10;99050.03;;;10.58;100.00
11525;BME280;5819;49.648;8.330;2023-03-26T10:44:12;99045.59;;;10.46;100.00
11525;BME280;5819;49.648;8.330;2023-03-26T10:47:01;99049.22;;;10.43;100.00
11525;BME280;5819;49.648;8.330;2023-03-26T10:52:30;99048.00;;;10.63;100.00
11525;BME280;5819;49.648;8.330;2023-03-26T10:55:10;99049.13;;;10.45;100.00
11525;BME280;5819;49.648;8.330;2023-03-26T10:57:44;99061.25;;;10.17;100.00
11525;BME280;5819;49.648;8.330;2023-03-26T11:00:18;99057.97;;;10.00;100.00
11525;BME280;5819;49.648;8.330;2023-03-26T11:03:11;99046.75;;;10.13;100.00
11525;BME280;5819;49.648;8.330;2023-03-26T11:05:50;99032.69;;;10.44;100.00
11525;BME280;5819;49.648;8.330;2023-03-26T11:08:25;99035.91;;;10.35;100.00
11525;BME280;5819;49.648;8.330;2023-03-26T11:11:04;99023.81;;;10.88;100.00
11525;BME280;5819;49.648;8.330;2023-03-26T11:13:45;99027.63;;;11.09;100.00
11525;BME280;5819;49.648;8.330;2023-03-26T11:16:20;99017.66;;;11.28;100.00
11525;BME280;5819;49.648;8.330;2023-03-26T11:18:57;99007.09;;;12.31;100.00
11525;BME280;5819;49.648;8.330;2023-03-26T11:21:32;99006.34;;;12.41;100.00
11525;BME280;5819;49.648;8.330;2023-03-26T11:24:40;99004.97;;;12.36;100.00
11525;BME280;5819;49.648;8.330;2023-03-26T11:27:21;99001.44;;;12.00;100.00
11525;BME280;5819;49.648;8.330;2023-03-26T11:30:02;99008.84;;;11.81;100.00
11525;BME280;5819;49.648;8.330;2023-03-26T11:32:40;99017.16;;;11.61;100.00
11525;BME280;5819;49.648;8.330;2023-03-26T11:35:16;99023.75;;;11.54;100.00
11525;BME280;5819;49.648;8.330;2023-03-26T11:38:14;99036.22;;;11.36;100.00
11525;BME280;5819;49.648;8.330;2023-03-26T11:40:47;99024.53;;;12.17;100.00
11525;BME280;5819;49.648;8.330;2023-03-26T11:43:34;99016.63;;;12.55;100.00
11525;BME280;5819;49.648;8.330;2023-03-26T11:46:06;99008.84;;;12.90;95.22
11525;BME280;5819;49.648;8.330;2023-03-26T11:48:39;99003.91;;;13.33;92.51
11525;BME280;5819;49.648;8.330;2023-03-26T11:51:13;99006.22;;;13.14;90.61
11525;BME280;5819;49.648;8.330;2023-03-26T11:53:44;98996.94;;;14.00;94.77
11525;BME280;5819;49.648;8.330;2023-03-26T11:56:19;98994.44;;;14.10;89.13
11525;BME280;5819;49.648;8.330;2023-03-26T11:58:54;98996.94;;;14.12;85.99
11525;BME280;5819;49.648;8.330;2023-03-26T12:01:28;98995.53;;;13.63;89.32
11525;BME280;5819;49.648;8.330;2023-03-26T12:04:10;99005.56;;;13.34;89.11
11525;BME280;5819;49.648;8.330;2023-03-26T12:06:50;98993.94;;;13.03;90.27
11525;BME280;5819;49.648;8.330;2023-03-26T12:09:20;98993.72;;;13.52;90.10
11525;BME280;5819;49.648;8.330;2023-03-26T12:11:52;98981.69;;;14.50;83.66
11525;BME280;5819;49.648;8.330;2023-03-26T12:14:24;98975.06;;;14.13;82.32
11525;BME280;5819;49.648;8.330;2023-03-26T12:16:58;98981.03;;;13.81;79.89
11525;BME280;5819;49.648;8.330;2023-03-26T12:19:34;98988.13;;;13.46;79.77
11525;BME280;5819;49.648;8.330;2023-03-26T12:22:04;98988.88;;;13.81;76.71
11525;BME280;5819;49.648;8.330;2023-03-26T12:24:35;98978.72;;;14.43;77.28
11525;BME280;5819;49.648;8.330;2023-03-26T12:27:20;98982.59;;;13.84;77.25
11525;BME280;5819;49.648;8.330;2023-03-26T12:29:50;98980.66;;;13.06;78.41
11525;BME280;5819;49.648;8.330;2023-03-26T12:32:20;98985.75;;;13.08;80.44
11525;BME280;5819;49.648;8.330;2023-03-26T12:35:16;98988.75;;;12.80;81.03
11525;BME280;5819;49.648;8.330;2023-03-26T12:38:19;98998.84;;;12.37;78.34
11525;BME280;5819;49.648;8.330;2023-03-26T12:41:08;99020.00;;;12.32;77.57
11525;BME280;5819;49.648;8.330;2023-03-26T12:44:16;99024.03;;;12.00;81.26
11525;BME280;5819;49.648;8.330;2023-03-26T12:47:14;99024.28;;;11.71;87.80
11525;BME280;5819;49.648;8.330;2023-03-26T12:50:05;99028.41;;;11.61;88.24
11525;BME280;5819;49.648;8.330;2023-03-26T12:52:48;99012.63;;;11.77;86.04
11525;BME280;5819;49.648;8.330;2023-03-26T12:55:46;99008.00;;;12.42;81.40
11525;BME280;5819;49.648;8.330;2023-03-26T12:58:35;99002.22;;;12.97;80.68
11525;BME280;5819;49.648;8.330;2023-03-26T13:01:15;98988.28;;;13.55;78.02
11525;BME280;5819;49.648;8.330;2023-03-26T13:06:53;99014.69;;;12.34;81.14
11525;BME280;5819;49.648;8.330;2023-03-26T13:09:39;99001.84;;;12.43;80.68
11525;BME280;5819;49.648;8.330;2023-03-26T13:12:20;98989.47;;;13.17;78.51
11525;BME280;5819;49.648;8.330;2023-03-26T13:15:10;98974.59;;;13.85;73.86
11525;BME280;5819;49.648;8.330;2023-03-26T13:17:49;98972.34;;;13.81;75.14
11525;BME280;5819;49.648;8.330;2023-03-26T13:20:28;98984.13;;;13.75;72.73
11525;BME280;5819;49.648;8.330;2023-03-26T13:23:03;98978.34;;;13.26;71.59
11525;BME280;5819;49.648;8.330;2023-03-26T13:25:41;98974.66;;;13.28;74.76
11525;BME280;5819;49.648;8.330;2023-03-26T13:28:20;98959.41;;;13.46;75.33
11525;BME280;5819;49.648;8.330;2023-03-26T13:31:02;98961.88;;;13.36;72.53
11525;BME280;5819;49.648;8.330;2023-03-26T13:33:39;98970.28;;;13.18;73.79
11525;BME280;5819;49.648;8.330;2023-03-26T13:36:16;98972.91;;;12.94;72.11
11525;BME280;5819;49.648;8.330;2023-03-26T13:39:02;98974.97;;;12.78;73.07
11525;BME280;5819;49.648;8.330;2023-03-26T13:41:56;98968.59;;;12.82;75.64
11525;BME280;5819;49.648;8.330;2023-03-26T13:44:33;98956.41;;;12.93;77.05
11525;BME280;5819;49.648;8.330;2023-03-26T13:47:11;98950.47;;;12.91;73.11
11525;BME280;5819;49.648;8.330;2023-03-26T13:49:46;98954.72;;;12.92;71.54
11525;BME280;5819;49.648;8.330;2023-03-26T13:52:21;98948.94;;;13.00;67.59
11525;BME280;5819;49.648;8.330;2023-03-26T13:54:56;98945.28;;;13.02;69.15
11525;BME280;5819;49.648;8.330;2023-03-26T13:57:32;98938.72;;;12.97;69.20
11525;BME280;5819;49.648;8.330;2023-03-26T14:00:04;98942.13;;;13.10;70.46
11525;BME280;5819;49.648;8.330;2023-03-26T14:02:41;98941.88;;;12.78;68.18
11525;BME280;5819;49.648;8.330;2023-03-26T14:05:15;98934.75;;;12.80;68.42
11525;BME280;5819;49.648;8.330;2023-03-26T14:07:50;98932.28;;;12.79;70.89
11525;BME280;5819;49.648;8.330;2023-03-26T14:10:23;98935.00;;;12.77;71.39
11525;BME280;5819;49.648;8.330;2023-03-26T14:12:55;98918.53;;;13.11;71.65
11525;BME280;5819;49.648;8.330;2023-03-26T14:15:29;98923.22;;;13.06;72.79
11525;BME280;5819;49.648;8.330;2023-03-26T14:18:06;98915.50;;;13.05;69.92
11525;BME280;5819;49.648;8.330;2023-03-26T14:21:05;98911.78;;;12.96;66.76
11525;BME280;5819;49.648;8.330;2023-03-26T14:23:56;98909.38;;;13.17;68.31
11525;BME280;5819;49.648;8.330;2023-03-26T14:26:40;98911.16;;;13.17;67.34
11525;BME280;5819;49.648;8.330;2023-03-26T14:29:28;98908.69;;;13.37;64.42
11525;BME280;5819;49.648;8.330;2023-03-26T14:35:23;98913.97;;;13.02;65.82
11525;BME280;5819;49.648;8.330;2023-03-26T14:38:10;98916.31;;;12.94;66.82
11525;BME280;5819;49.648;8.330;2023-03-26T14:41:04;98895.53;;;12.93;65.49
11525;BME280;5819;49.648;8.330;2023-03-26T14:47:05;98907.72;;;12.81;71.53
11525;BME280;5819;49.648;8.330;2023-03-26T14:52:49;98910.03;;;12.62;70.87